sensor_id;sensor_type;location;lat;lon;timestamp;temperature;humidity
56729;DHT22;42612;52.232;7.560;2023-01-13T00:01:21;13.70;67.60
56729;DHT22;42612;52.232;7.560;2023-01-13T00:03:48;13.70;67.60
56729;DHT22;42612;52.232;7.560;2023-01-13T00:06:15;13.70;67.50
56729;DHT22;42612;52.232;7.560;2023-01-13T00:08:43;13.70;67.40
56729;DHT22;42612;52.232;7.560;2023-01-13T00:11:09;13.70;67.40
56729;DHT22;42612;52.232;7.560;2023-01-13T00:13:35;13.70;67.40
56729;DHT22;42612;52.232;7.560;2023-01-13T00:16:06;13.70;67.30
56729;DHT22;42612;52.232;7.560;2023-01-13T00:18:34;13.70;67.20
56729;DHT22;42612;52.232;7.560;2023-01-13T00:21:04;13.60;67.20
56729;DHT22;42612;52.232;7.560;2023-01-13T00:23:32;13.60;67.30
56729;DHT22;42612;52.232;7.560;2023-01-13T00:25:58;13.60;65.90
56729;DHT22;42612;52.232;7.560;2023-01-13T00:28:26;13.60;66.70
56729;DHT22;42612;52.232;7.560;2023-01-13T00:30:52;13.60;66.50
56729;DHT22;42612;52.232;7.560;2023-01-13T00:33:17;13.60;66.90
56729;DHT22;42612;52.232;7.560;2023-01-13T00:35:43;13.60;66.50
56729;DHT22;42612;52.232;7.560;2023-01-13T00:38:09;13.50;66.70
56729;DHT22;42612;52.232;7.560;2023-01-13T00:40:34;13.50;66.10
56729;DHT22;42612;52.232;7.560;2023-01-13T00:43:00;13.50;66.60
56729;DHT22;42612;52.232;7.560;2023-01-13T00:45:44;13.50;66.80
56729;DHT22;42612;52.232;7.560;2023-01-13T00:48:10;13.50;66.10
56729;DHT22;42612;52.232;7.560;2023-01-13T00:50:35;13.40;66.40
56729;DHT22;42612;52.232;7.560;2023-01-13T00:53:01;13.40;66.10
56729;DHT22;42612;52.232;7.560;2023-01-13T00:55:29;13.40;65.90
56729;DHT22;42612;52.232;7.560;2023-01-13T00:57:55;13.40;66.30
56729;DHT22;42612;52.232;7.560;2023-01-13T01:00:28;13.40;66.60
56729;DHT22;42612;52.232;7.560;2023-01-13T01:02:54;13.30;66.60
56729;DHT22;42612;52.232;7.560;2023-01-13T01:05:20;13.30;66.40
56729;DHT22;42612;52.232;7.560;2023-01-13T01:07:46;13.30;66.20
56729;DHT22;42612;52.232;7.560;2023-01-13T01:10:11;13.30;66.40
56729;DHT22;42612;52.232;7.560;2023-01-13T01:12:37;13.30;66.40
56729;DHT22;42612;52.232;7.560;2023-01-13T01:15:02;13.30;66.40
56729;DHT22;42612;52.232;7.560;2023-01-13T01:17:30;13.20;66.20
56729;DHT22;42612;52.232;7.560;2023-01-13T01:19:55;13.20;65.90
56729;DHT22;42612;52.232;7.560;2023-01-13T01:22:21;13.20;66.30
56729;DHT22;42612;52.232;7.560;2023-01-13T01:24:47;13.20;66.20
56729;DHT22;42612;52.232;7.560;2023-01-13T01:27:12;13.20;65.60
56729;DHT22;42612;52.232;7.560;2023-01-13T01:29:38;13.20;65.90
56729;DHT22;42612;52.232;7.560;2023-01-13T01:32:03;13.10;66.00
56729;DHT22;42612;52.232;7.560;2023-01-13T01:34:29;13.20;66.00
56729;DHT22;42612;52.232;7.560;2023-01-13T01:36:55;13.20;66.00
56729;DHT22;42612;52.232;7.560;2023-01-13T01:39:20;13.10;65.80
56729;DHT22;42612;52.232;7.560;2023-01-13T01:41:46;13.10;65.90
56729;DHT22;42612;52.232;7.560;2023-01-13T01:45:00;13.10;65.40
56729;DHT22;42612;52.232;7.560;2023-01-13T01:47:28;13.10;65.10
56729;DHT22;42612;52.232;7.560;2023-01-13T01:49:54;13.00;65.50
56729;DHT22;42612;52.232;7.560;2023-01-13T01:52:25;13.10;63.80
56729;DHT22;42612;52.232;7.560;2023-01-13T01:54:58;13.00;65.00
56729;DHT22;42612;52.232;7.560;2023-01-13T01:57:28;13.00;64.80
56729;DHT22;42612;52.232;7.560;2023-01-13T02:00:00;13.00;65.00
56729;DHT22;42612;52.232;7.560;2023-01-13T02:02:27;13.00;64.60
56729;DHT22;42612;52.232;7.560;2023-01-13T02:04:53;12.90;64.50
56729;DHT22;42612;52.232;7.560;2023-01-13T02:07:21;12.90;64.90
56729;DHT22;42612;52.232;7.560;2023-01-13T02:09:49;12.90;65.00
56729;DHT22;42612;52.232;7.560;2023-01-13T02:12:15;12.90;65.10
56729;DHT22;42612;52.232;7.560;2023-01-13T02:14:54;12.90;65.10
56729;DHT22;42612;52.232;7.560;2023-01-13T02:17:26;12.80;65.50
56729;DHT22;42612;52.232;7.560;2023-01-13T02:25:34;12.80;65.50
56729;DHT22;42612;52.232;7.560;2023-01-13T02:30:41;12.70;65.30
56729;DHT22;42612;52.232;7.560;2023-01-13T02:39:24;12.70;65.10
56729;DHT22;42612;52.232;7.560;2023-01-13T02:42:13;12.60;65.00
56729;DHT22;42612;52.232;7.560;2023-01-13T02:45:12;12.60;64.90
56729;DHT22;42612;52.232;7.560;2023-01-13T02:47:41;12.60;65.60
56729;DHT22;42612;52.232;7.560;2023-01-13T02:50:13;12.60;65.10
56729;DHT22;42612;52.232;7.560;2023-01-13T02:52:44;12.60;65.30
56729;DHT22;42612;52.232;7.560;2023-01-13T02:55:17;12.60;65.20
56729;DHT22;42612;52.232;7.560;2023-01-13T02:57:45;12.60;64.10
56729;DHT22;42612;52.232;7.560;2023-01-13T03:00:12;12.60;64.80
56729;DHT22;42612;52.232;7.560;2023-01-13T03:02:39;12.60;64.70
56729;DHT22;42612;52.232;7.560;2023-01-13T03:05:04;12.50;65.10
56729;DHT22;42612;52.232;7.560;2023-01-13T03:07:35;12.60;64.90
56729;DHT22;42612;52.232;7.560;2023-01-13T03:13:36;12.60;65.40
56729;DHT22;42612;52.232;7.560;2023-01-13T03:16:29;12.60;65.40
56729;DHT22;42612;52.232;7.560;2023-01-13T03:24:35;12.50;65.30
56729;DHT22;42612;52.232;7.560;2023-01-13T03:32:35;12.40;64.70
56729;DHT22;42612;52.232;7.560;2023-01-13T03:35:06;12.40;65.20
56729;DHT22;42612;52.232;7.560;2023-01-13T03:37:56;12.40;64.90
56729;DHT22;42612;52.232;7.560;2023-01-13T03:40:26;12.40;65.20
56729;DHT22;42612;52.232;7.560;2023-01-13T03:42:59;12.40;64.80
56729;DHT22;42612;52.232;7.560;2023-01-13T03:45:58;12.30;64.20
56729;DHT22;42612;52.232;7.560;2023-01-13T03:48:27;12.30;64.80
56729;DHT22;42612;52.232;7.560;2023-01-13T03:50:56;12.30;64.90
56729;DHT22;42612;52.232;7.560;2023-01-13T03:53:29;12.30;64.90
56729;DHT22;42612;52.232;7.560;2023-01-13T03:55:58;12.30;64.80
56729;DHT22;42612;52.232;7.560;2023-01-13T03:58:31;12.20;62.70
56729;DHT22;42612;52.232;7.560;2023-01-13T04:01:04;12.20;64.00
56729;DHT22;42612;52.232;7.560;2023-01-13T04:03:46;12.20;63.00
56729;DHT22;42612;52.232;7.560;2023-01-13T04:06:19;12.20;63.40
56729;DHT22;42612;52.232;7.560;2023-01-13T04:08:54;12.20;62.10
56729;DHT22;42612;52.232;7.560;2023-01-13T04:11:33;12.20;62.10
56729;DHT22;42612;52.232;7.560;2023-01-13T04:14:02;12.10;61.50
56729;DHT22;42612;52.232;7.560;2023-01-13T04:16:29;12.10;63.10
56729;DHT22;42612;52.232;7.560;2023-01-13T04:18:55;12.10;63.50
56729;DHT22;42612;52.232;7.560;2023-01-13T04:21:21;12.10;63.30
56729;DHT22;42612;52.232;7.560;2023-01-13T04:23:46;12.10;63.40
56729;DHT22;42612;52.232;7.560;2023-01-13T04:26:15;12.10;63.90
56729;DHT22;42612;52.232;7.560;2023-01-13T04:28:42;12.10;64.20
56729;DHT22;42612;52.232;7.560;2023-01-13T04:31:07;12.10;64.10
56729;DHT22;42612;52.232;7.560;2023-01-13T04:33:33;12.10;64.40
56729;DHT22;42612;52.232;7.560;2023-01-13T04:35:58;12.10;63.00
56729;DHT22;42612;52.232;7.560;2023-01-13T04:38:24;12.10;63.50
56729;DHT22;42612;52.232;7.560;2023-01-13T04:40:50;12.10;64.30
56729;DHT22;42612;52.232;7.560;2023-01-13T04:43:15;12.20;61.90
56729;DHT22;42612;52.232;7.560;2023-01-13T04:45:41;12.20;62.50
56729;DHT22;42612;52.232;7.560;2023-01-13T04:48:07;12.10;61.80
56729;DHT22;42612;52.232;7.560;2023-01-13T04:50:33;12.10;62.30
56729;DHT22;42612;52.232;7.560;2023-01-13T04:52:59;12.10;62.50
56729;DHT22;42612;52.232;7.560;2023-01-13T04:55:27;12.10;63.00
56729;DHT22;42612;52.232;7.560;2023-01-13T04:57:53;12.10;63.70
56729;DHT22;42612;52.232;7.560;2023-01-13T05:00:19;12.10;63.70
56729;DHT22;42612;52.232;7.560;2023-01-13T05:02:47;12.10;63.90
56729;DHT22;42612;52.232;7.560;2023-01-13T05:05:14;12.10;64.10
56729;DHT22;42612;52.232;7.560;2023-01-13T05:07:39;12.10;63.90
56729;DHT22;42612;52.232;7.560;2023-01-13T05:10:05;12.10;63.70
56729;DHT22;42612;52.232;7.560;2023-01-13T05:12:31;12.10;64.20
56729;DHT22;42612;52.232;7.560;2023-01-13T05:15:15;12.10;64.00
56729;DHT22;42612;52.232;7.560;2023-01-13T05:17:59;12.10;63.40
56729;DHT22;42612;52.232;7.560;2023-01-13T05:20:26;12.10;63.30
56729;DHT22;42612;52.232;7.560;2023-01-13T05:22:51;12.10;63.90
56729;DHT22;42612;52.232;7.560;2023-01-13T05:25:39;12.10;64.00
56729;DHT22;42612;52.232;7.560;2023-01-13T05:28:08;12.10;63.40
56729;DHT22;42612;52.232;7.560;2023-01-13T05:30:38;12.10;62.60
56729;DHT22;42612;52.232;7.560;2023-01-13T05:33:07;12.10;62.00
56729;DHT22;42612;52.232;7.560;2023-01-13T05:35:33;12.10;62.20
56729;DHT22;42612;52.232;7.560;2023-01-13T05:37:59;12.10;62.20
56729;DHT22;42612;52.232;7.560;2023-01-13T05:40:25;12.10;61.80
56729;DHT22;42612;52.232;7.560;2023-01-13T05:43:10;12.10;63.10
56729;DHT22;42612;52.232;7.560;2023-01-13T05:45:50;12.10;62.30
56729;DHT22;42612;52.232;7.560;2023-01-13T05:48:28;12.10;63.60
56729;DHT22;42612;52.232;7.560;2023-01-13T05:50:58;12.10;63.40
56729;DHT22;42612;52.232;7.560;2023-01-13T05:53:24;12.10;62.90
56729;DHT22;42612;52.232;7.560;2023-01-13T05:55:50;12.10;63.00
56729;DHT22;42612;52.232;7.560;2023-01-13T05:58:16;12.00;62.70
56729;DHT22;42612;52.232;7.560;2023-01-13T06:00:43;12.00;63.30
56729;DHT22;42612;52.232;7.560;2023-01-13T06:03:09;12.00;63.80
56729;DHT22;42612;52.232;7.560;2023-01-13T06:05:35;12.00;62.90
56729;DHT22;42612;52.232;7.560;2023-01-13T06:08:02;12.00;63.50
56729;DHT22;42612;52.232;7.560;2023-01-13T06:10:29;12.00;63.10
56729;DHT22;42612;52.232;7.560;2023-01-13T06:12:54;12.00;60.60
56729;DHT22;42612;52.232;7.560;2023-01-13T06:15:20;11.90;61.70
56729;DHT22;42612;52.232;7.560;2023-01-13T06:17:46;11.90;62.20
56729;DHT22;42612;52.232;7.560;2023-01-13T06:20:12;11.90;62.30
56729;DHT22;42612;52.232;7.560;2023-01-13T06:22:40;11.90;62.50
56729;DHT22;42612;52.232;7.560;2023-01-13T06:25:12;11.90;62.80
56729;DHT22;42612;52.232;7.560;2023-01-13T06:27:41;11.90;63.40
56729;DHT22;42612;52.232;7.560;2023-01-13T06:30:06;11.90;62.90
56729;DHT22;42612;52.232;7.560;2023-01-13T06:32:34;11.80;62.90
56729;DHT22;42612;52.232;7.560;2023-01-13T06:35:05;11.80;62.40
56729;DHT22;42612;52.232;7.560;2023-01-13T06:37:33;11.80;62.80
56729;DHT22;42612;52.232;7.560;2023-01-13T06:40:00;11.80;63.90
56729;DHT22;42612;52.232;7.560;2023-01-13T06:42:28;11.70;61.40
56729;DHT22;42612;52.232;7.560;2023-01-13T06:45:16;11.70;62.00
56729;DHT22;42612;52.232;7.560;2023-01-13T06:47:42;11.70;62.80
56729;DHT22;42612;52.232;7.560;2023-01-13T06:50:08;11.70;62.60
56729;DHT22;42612;52.232;7.560;2023-01-13T06:52:34;11.70;62.50
56729;DHT22;42612;52.232;7.560;2023-01-13T06:55:00;11.70;63.20
56729;DHT22;42612;52.232;7.560;2023-01-13T06:57:25;11.60;61.80
56729;DHT22;42612;52.232;7.560;2023-01-13T06:59:51;11.60;62.30
56729;DHT22;42612;52.232;7.560;2023-01-13T07:02:17;11.60;62.70
56729;DHT22;42612;52.232;7.560;2023-01-13T07:04:42;11.60;61.80
56729;DHT22;42612;52.232;7.560;2023-01-13T07:07:09;11.60;62.20
56729;DHT22;42612;52.232;7.560;2023-01-13T07:09:36;11.60;63.00
56729;DHT22;42612;52.232;7.560;2023-01-13T07:12:02;11.60;63.10
56729;DHT22;42612;52.232;7.560;2023-01-13T07:14:28;11.60;62.00
56729;DHT22;42612;52.232;7.560;2023-01-13T07:17:12;11.60;62.90
56729;DHT22;42612;52.232;7.560;2023-01-13T07:19:37;11.60;63.00
56729;DHT22;42612;52.232;7.560;2023-01-13T07:22:03;11.60;63.10
56729;DHT22;42612;52.232;7.560;2023-01-13T07:24:29;11.60;62.50
56729;DHT22;42612;52.232;7.560;2023-01-13T07:26:54;11.60;62.50
56729;DHT22;42612;52.232;7.560;2023-01-13T07:29:20;11.60;63.00
56729;DHT22;42612;52.232;7.560;2023-01-13T07:31:45;11.60;61.60
56729;DHT22;42612;52.232;7.560;2023-01-13T07:34:11;11.60;62.30
56729;DHT22;42612;52.232;7.560;2023-01-13T07:36:37;11.60;62.70
56729;DHT22;42612;52.232;7.560;2023-01-13T07:39:03;11.60;61.80
56729;DHT22;42612;52.232;7.560;2023-01-13T07:41:29;11.70;63.10
56729;DHT22;42612;52.232;7.560;2023-01-13T07:44:13;11.60;63.20
56729;DHT22;42612;52.232;7.560;2023-01-13T07:46:39;11.60;62.40
56729;DHT22;42612;52.232;7.560;2023-01-13T07:49:05;11.60;63.00
56729;DHT22;42612;52.232;7.560;2023-01-13T07:51:33;11.60;62.20
56729;DHT22;42612;52.232;7.560;2023-01-13T07:54:00;11.60;61.70
56729;DHT22;42612;52.232;7.560;2023-01-13T07:56:25;11.60;62.60
56729;DHT22;42612;52.232;7.560;2023-01-13T07:58:51;11.70;62.30
56729;DHT22;42612;52.232;7.560;2023-01-13T08:01:17;11.70;62.20
56729;DHT22;42612;52.232;7.560;2023-01-13T08:03:43;11.70;62.80
56729;DHT22;42612;52.232;7.560;2023-01-13T08:06:09;11.70;62.90
56729;DHT22;42612;52.232;7.560;2023-01-13T08:08:35;11.70;62.40
56729;DHT22;42612;52.232;7.560;2023-01-13T08:11:02;11.70;62.30
56729;DHT22;42612;52.232;7.560;2023-01-13T08:13:28;11.70;61.80
56729;DHT22;42612;52.232;7.560;2023-01-13T08:15:58;11.70;62.00
56729;DHT22;42612;52.232;7.560;2023-01-13T08:18:28;11.70;63.00
56729;DHT22;42612;52.232;7.560;2023-01-13T08:20:59;11.70;62.40
56729;DHT22;42612;52.232;7.560;2023-01-13T08:23:29;11.70;62.70
56729;DHT22;42612;52.232;7.560;2023-01-13T08:25:58;11.70;63.10
56729;DHT22;42612;52.232;7.560;2023-01-13T08:28:25;11.70;62.00
56729;DHT22;42612;52.232;7.560;2023-01-13T08:30:51;11.70;61.50
56729;DHT22;42612;52.232;7.560;2023-01-13T08:33:18;11.80;62.10
56729;DHT22;42612;52.232;7.560;2023-01-13T08:35:44;11.80;62.00
56729;DHT22;42612;52.232;7.560;2023-01-13T08:38:10;11.80;62.60
56729;DHT22;42612;52.232;7.560;2023-01-13T08:40:35;11.80;62.40
56729;DHT22;42612;52.232;7.560;2023-01-13T08:43:03;11.80;60.20
56729;DHT22;42612;52.232;7.560;2023-01-13T08:45:29;11.80;62.00
56729;DHT22;42612;52.232;7.560;2023-01-13T08:47:55;11.80;62.00
56729;DHT22;42612;52.232;7.560;2023-01-13T08:50:20;11.80;62.50
56729;DHT22;42612;52.232;7.560;2023-01-13T08:52:46;11.80;59.90
56729;DHT22;42612;52.232;7.560;2023-01-13T08:55:11;11.80;62.20
56729;DHT22;42612;52.232;7.560;2023-01-13T08:57:37;11.80;60.50
56729;DHT22;42612;52.232;7.560;2023-01-13T09:00:03;11.80;62.30
56729;DHT22;42612;52.232;7.560;2023-01-13T09:02:30;11.80;62.40
56729;DHT22;42612;52.232;7.560;2023-01-13T09:04:56;11.80;61.70
56729;DHT22;42612;52.232;7.560;2023-01-13T09:07:21;11.70;62.20
56729;DHT22;42612;52.232;7.560;2023-01-13T09:09:47;11.80;62.10
56729;DHT22;42612;52.232;7.560;2023-01-13T09:12:13;11.80;62.40
56729;DHT22;42612;52.232;7.560;2023-01-13T09:14:58;11.80;62.40
56729;DHT22;42612;52.232;7.560;2023-01-13T09:17:24;11.80;61.60
56729;DHT22;42612;52.232;7.560;2023-01-13T09:19:51;11.70;61.40
56729;DHT22;42612;52.232;7.560;2023-01-13T09:22:17;11.80;62.20
56729;DHT22;42612;52.232;7.560;2023-01-13T09:24:43;11.70;61.50
56729;DHT22;42612;52.232;7.560;2023-01-13T09:27:10;11.70;61.70
56729;DHT22;42612;52.232;7.560;2023-01-13T09:29:36;11.70;61.30
56729;DHT22;42612;52.232;7.560;2023-01-13T09:32:02;11.70;61.80
56729;DHT22;42612;52.232;7.560;2023-01-13T09:34:28;11.70;62.10
56729;DHT22;42612;52.232;7.560;2023-01-13T09:37:13;11.70;61.70
56729;DHT22;42612;52.232;7.560;2023-01-13T09:39:38;11.70;61.60
56729;DHT22;42612;52.232;7.560;2023-01-13T09:42:16;11.70;61.50
56729;DHT22;42612;52.232;7.560;2023-01-13T09:45:13;11.70;61.70
56729;DHT22;42612;52.232;7.560;2023-01-13T09:47:48;11.70;60.60
56729;DHT22;42612;52.232;7.560;2023-01-13T09:52:58;11.70;60.10
56729;DHT22;42612;52.232;7.560;2023-01-13T09:57:56;11.70;61.50
56729;DHT22;42612;52.232;7.560;2023-01-13T10:00:44;11.70;60.50
56729;DHT22;42612;52.232;7.560;2023-01-13T10:05:53;11.70;61.40
56729;DHT22;42612;52.232;7.560;2023-01-13T10:08:23;11.70;61.20
56729;DHT22;42612;52.232;7.560;2023-01-13T10:10:58;11.70;61.80
56729;DHT22;42612;52.232;7.560;2023-01-13T10:13:25;11.70;61.40
56729;DHT22;42612;52.232;7.560;2023-01-13T10:16:17;11.70;61.40
56729;DHT22;42612;52.232;7.560;2023-01-13T10:18:56;11.80;62.00
56729;DHT22;42612;52.232;7.560;2023-01-13T10:21:44;11.80;62.00
56729;DHT22;42612;52.232;7.560;2023-01-13T10:24:21;11.80;61.50
56729;DHT22;42612;52.232;7.560;2023-01-13T10:29:52;11.80;61.70
56729;DHT22;42612;52.232;7.560;2023-01-13T10:32:19;11.90;61.90
56729;DHT22;42612;52.232;7.560;2023-01-13T10:34:48;11.90;61.80
56729;DHT22;42612;52.232;7.560;2023-01-13T10:37:20;11.90;61.90
56729;DHT22;42612;52.232;7.560;2023-01-13T10:39:48;11.90;61.80
56729;DHT22;42612;52.232;7.560;2023-01-13T10:42:18;11.90;61.20
56729;DHT22;42612;52.232;7.560;2023-01-13T10:44:53;11.90;61.50
56729;DHT22;42612;52.232;7.560;2023-01-13T10:47:30;12.00;60.30
56729;DHT22;42612;52.232;7.560;2023-01-13T10:52:35;11.90;61.60
56729;DHT22;42612;52.232;7.560;2023-01-13T10:58:19;11.90;61.60
56729;DHT22;42612;52.232;7.560;2023-01-13T11:00:46;11.90;61.70
56729;DHT22;42612;52.232;7.560;2023-01-13T11:05:46;11.80;61.80
56729;DHT22;42612;52.232;7.560;2023-01-13T11:08:17;11.80;62.10
56729;DHT22;42612;52.232;7.560;2023-01-13T11:10:45;11.80;62.00
56729;DHT22;42612;52.232;7.560;2023-01-13T11:13:14;11.70;61.80
56729;DHT22;42612;52.232;7.560;2023-01-13T11:20:55;11.70;62.20
56729;DHT22;42612;52.232;7.560;2023-01-13T11:23:23;11.70;62.20
56729;DHT22;42612;52.232;7.560;2023-01-13T11:26:00;11.70;62.30
56729;DHT22;42612;52.232;7.560;2023-01-13T11:28:59;11.70;62.40
56729;DHT22;42612;52.232;7.560;2023-01-13T11:36:50;11.60;62.60
56729;DHT22;42612;52.232;7.560;2023-01-13T11:39:38;11.60;62.70
56729;DHT22;42612;52.232;7.560;2023-01-13T11:42:11;11.60;62.70
56729;DHT22;42612;52.232;7.560;2023-01-13T11:44:47;11.60;62.80
56729;DHT22;42612;52.232;7.560;2023-01-13T11:47:14;11.60;62.80
56729;DHT22;42612;52.232;7.560;2023-01-13T11:49:41;11.60;62.70
56729;DHT22;42612;52.232;7.560;2023-01-13T11:57:44;11.60;62.90
56729;DHT22;42612;52.232;7.560;2023-01-13T12:24:05;11.70;63.00
56729;DHT22;42612;52.232;7.560;2023-01-13T12:26:37;11.70;63.00
56729;DHT22;42612;52.232;7.560;2023-01-13T12:29:14;11.70;62.80
56729;DHT22;42612;52.232;7.560;2023-01-13T12:31:43;11.70;62.10
56729;DHT22;42612;52.232;7.560;2023-01-13T12:39:40;11.70;62.70
56729;DHT22;42612;52.232;7.560;2023-01-13T12:42:20;11.70;62.90
56729;DHT22;42612;52.232;7.560;2023-01-13T12:45:27;11.70;62.50
56729;DHT22;42612;52.232;7.560;2023-01-13T12:47:54;11.70;62.70
56729;DHT22;42612;52.232;7.560;2023-01-13T12:52:47;11.80;62.60
56729;DHT22;42612;52.232;7.560;2023-01-13T12:55:26;11.70;62.50
56729;DHT22;42612;52.232;7.560;2023-01-13T12:57:57;11.80;62.90
56729;DHT22;42612;52.232;7.560;2023-01-13T13:00:36;11.80;62.60
56729;DHT22;42612;52.232;7.560;2023-01-13T13:03:23;11.90;62.70
56729;DHT22;42612;52.232;7.560;2023-01-13T13:05:56;11.80;62.10
56729;DHT22;42612;52.232;7.560;2023-01-13T13:13:59;11.90;62.60
56729;DHT22;42612;52.232;7.560;2023-01-13T13:18:51;12.00;62.90
56729;DHT22;42612;52.232;7.560;2023-01-13T13:21:17;12.10;63.00
56729;DHT22;42612;52.232;7.560;2023-01-13T13:26:39;12.10;62.60
56729;DHT22;42612;52.232;7.560;2023-01-13T13:40:51;12.10;62.30
56729;DHT22;42612;52.232;7.560;2023-01-13T13:43:58;12.10;62.40
56729;DHT22;42612;52.232;7.560;2023-01-13T13:46:44;12.20;62.80
56729;DHT22;42612;52.232;7.560;2023-01-13T13:49:20;12.20;62.60
56729;DHT22;42612;52.232;7.560;2023-01-13T13:51:56;12.20;62.30
56729;DHT22;42612;52.232;7.560;2023-01-13T13:54:27;12.20;62.50
56729;DHT22;42612;52.232;7.560;2023-01-13T13:56:52;12.20;62.60
56729;DHT22;42612;52.232;7.560;2023-01-13T13:59:22;12.30;61.60
56729;DHT22;42612;52.232;7.560;2023-01-13T14:01:50;12.30;62.30
56729;DHT22;42612;52.232;7.560;2023-01-13T14:04:26;12.30;62.10
56729;DHT22;42612;52.232;7.560;2023-01-13T14:06:58;12.30;61.90
56729;DHT22;42612;52.232;7.560;2023-01-13T14:09:27;12.30;62.00
56729;DHT22;42612;52.232;7.560;2023-01-13T14:12:00;12.30;61.40
56729;DHT22;42612;52.232;7.560;2023-01-13T14:14:28;12.30;61.90
56729;DHT22;42612;52.232;7.560;2023-01-13T14:16:54;12.30;62.20
56729;DHT22;42612;52.232;7.560;2023-01-13T14:19:33;12.30;62.00
56729;DHT22;42612;52.232;7.560;2023-01-13T14:21:59;12.30;61.90
56729;DHT22;42612;52.232;7.560;2023-01-13T14:24:26;12.30;61.80
56729;DHT22;42612;52.232;7.560;2023-01-13T14:27:05;12.30;62.60
56729;DHT22;42612;52.232;7.560;2023-01-13T14:29:32;12.20;61.90
56729;DHT22;42612;52.232;7.560;2023-01-13T14:31:58;12.30;61.60
56729;DHT22;42612;52.232;7.560;2023-01-13T14:34:23;12.20;61.60
56729;DHT22;42612;52.232;7.560;2023-01-13T14:36:50;12.20;61.90
56729;DHT22;42612;52.232;7.560;2023-01-13T14:44:23;12.20;61.90
56729;DHT22;42612;52.232;7.560;2023-01-13T14:46:51;12.20;61.90
56729;DHT22;42612;52.232;7.560;2023-01-13T14:49:37;12.20;62.30
56729;DHT22;42612;52.232;7.560;2023-01-13T14:52:27;12.10;61.50
56729;DHT22;42612;52.232;7.560;2023-01-13T14:57:34;12.10;61.90
56729;DHT22;42612;52.232;7.560;2023-01-13T15:00:05;12.10;62.20
56729;DHT22;42612;52.232;7.560;2023-01-13T15:02:45;12.00;61.80
56729;DHT22;42612;52.232;7.560;2023-01-13T15:10:29;12.00;62.20
56729;DHT22;42612;52.232;7.560;2023-01-13T15:12:58;12.00;61.80
56729;DHT22;42612;52.232;7.560;2023-01-13T15:15:31;11.90;62.30
56729;DHT22;42612;52.232;7.560;2023-01-13T15:17:59;11.90;62.30
56729;DHT22;42612;52.232;7.560;2023-01-13T15:20:25;11.90;62.20
56729;DHT22;42612;52.232;7.560;2023-01-13T15:22:52;11.90;62.10
56729;DHT22;42612;52.232;7.560;2023-01-13T15:25:18;11.90;62.40
56729;DHT22;42612;52.232;7.560;2023-01-13T15:27:45;11.90;62.10
56729;DHT22;42612;52.232;7.560;2023-01-13T15:30:14;11.90;61.80
56729;DHT22;42612;52.232;7.560;2023-01-13T15:32:41;11.90;62.00
56729;DHT22;42612;52.232;7.560;2023-01-13T15:35:08;11.90;62.30
56729;DHT22;42612;52.232;7.560;2023-01-13T15:37:37;11.90;62.30
56729;DHT22;42612;52.232;7.560;2023-01-13T15:40:03;11.90;62.50
56729;DHT22;42612;52.232;7.560;2023-01-13T15:42:28;11.90;62.40
56729;DHT22;42612;52.232;7.560;2023-01-13T15:45:12;11.90;62.40
56729;DHT22;42612;52.232;7.560;2023-01-13T15:47:57;11.90;62.30
56729;DHT22;42612;52.232;7.560;2023-01-13T15:50:24;11.90;62.50
56729;DHT22;42612;52.232;7.560;2023-01-13T15:52:49;11.90;62.30
56729;DHT22;42612;52.232;7.560;2023-01-13T15:55:15;11.90;62.40
56729;DHT22;42612;52.232;7.560;2023-01-13T15:57:42;11.90;62.50
56729;DHT22;42612;52.232;7.560;2023-01-13T16:00:15;11.90;62.50
56729;DHT22;42612;52.232;7.560;2023-01-13T16:02:42;11.90;62.50
56729;DHT22;42612;52.232;7.560;2023-01-13T16:05:10;11.90;62.70
56729;DHT22;42612;52.232;7.560;2023-01-13T16:07:36;11.90;62.70
56729;DHT22;42612;52.232;7.560;2023-01-13T16:10:02;11.80;62.70
56729;DHT22;42612;52.232;7.560;2023-01-13T16:12:29;11.80;62.70
56729;DHT22;42612;52.232;7.560;2023-01-13T16:14:55;11.70;62.80
56729;DHT22;42612;52.232;7.560;2023-01-13T16:17:22;11.70;62.90
56729;DHT22;42612;52.232;7.560;2023-01-13T16:19:49;11.70;63.00
56729;DHT22;42612;52.232;7.560;2023-01-13T16:22:15;11.70;63.00
56729;DHT22;42612;52.232;7.560;2023-01-13T16:24:41;11.70;62.90
56729;DHT22;42612;52.232;7.560;2023-01-13T16:27:14;11.70;62.90
56729;DHT22;42612;52.232;7.560;2023-01-13T16:29:42;11.70;63.60
56729;DHT22;42612;52.232;7.560;2023-01-13T16:32:08;11.70;62.90
56729;DHT22;42612;52.232;7.560;2023-01-13T16:34:33;11.70;62.40
56729;DHT22;42612;52.232;7.560;2023-01-13T16:36:59;11.70;62.60
56729;DHT22;42612;52.232;7.560;2023-01-13T16:39:24;11.70;62.80
56729;DHT22;42612;52.232;7.560;2023-01-13T16:41:50;11.70;62.80
56729;DHT22;42612;52.232;7.560;2023-01-13T16:44:16;11.70;62.70
56729;DHT22;42612;52.232;7.560;2023-01-13T16:46:42;11.70;62.80
56729;DHT22;42612;52.232;7.560;2023-01-13T16:49:10;11.70;62.70
56729;DHT22;42612;52.232;7.560;2023-01-13T16:51:37;11.70;62.80
56729;DHT22;42612;52.232;7.560;2023-01-13T16:54:03;11.70;62.60
56729;DHT22;42612;52.232;7.560;2023-01-13T16:56:33;11.70;62.70
56729;DHT22;42612;52.232;7.560;2023-01-13T16:59:05;11.70;62.60
56729;DHT22;42612;52.232;7.560;2023-01-13T17:01:32;11.70;62.70
56729;DHT22;42612;52.232;7.560;2023-01-13T17:03:59;11.70;62.70
56729;DHT22;42612;52.232;7.560;2023-01-13T17:06:31;11.70;62.80
56729;DHT22;42612;52.232;7.560;2023-01-13T17:09:04;11.70;62.70
56729;DHT22;42612;52.232;7.560;2023-01-13T17:11:31;11.70;62.70
56729;DHT22;42612;52.232;7.560;2023-01-13T17:13:56;11.70;62.70
56729;DHT22;42612;52.232;7.560;2023-01-13T17:16:22;11.70;62.60
56729;DHT22;42612;52.232;7.560;2023-01-13T17:18:50;11.70;62.60
56729;DHT22;42612;52.232;7.560;2023-01-13T17:21:17;11.70;62.30
56729;DHT22;42612;52.232;7.560;2023-01-13T17:23:43;11.70;62.60
56729;DHT22;42612;52.232;7.560;2023-01-13T17:26:26;11.70;62.70
56729;DHT22;42612;52.232;7.560;2023-01-13T17:28:52;11.70;62.50
56729;DHT22;42612;52.232;7.560;2023-01-13T17:31:17;11.70;62.70
56729;DHT22;42612;52.232;7.560;2023-01-13T17:33:43;11.60;62.40
56729;DHT22;42612;52.232;7.560;2023-01-13T17:36:08;11.70;62.50
56729;DHT22;42612;52.232;7.560;2023-01-13T17:38:34;11.70;62.60
56729;DHT22;42612;52.232;7.560;2023-01-13T17:41:01;11.70;62.60
56729;DHT22;42612;52.232;7.560;2023-01-13T17:43:28;11.70;62.40
56729;DHT22;42612;52.232;7.560;2023-01-13T17:45:55;11.70;62.40
56729;DHT22;42612;52.232;7.560;2023-01-13T17:48:21;11.70;62.60
56729;DHT22;42612;52.232;7.560;2023-01-13T17:50:47;11.70;62.50
56729;DHT22;42612;52.232;7.560;2023-01-13T17:53:14;11.70;62.40
56729;DHT22;42612;52.232;7.560;2023-01-13T17:55:39;11.70;62.30
56729;DHT22;42612;52.232;7.560;2023-01-13T17:58:05;11.70;62.40